createdAt,value
2022-10-13T00:00:10.328Z,8.63
2022-10-13T00:05:12.256Z,7.63
2022-10-13T00:10:14.069Z,8.13
2022-10-13T00:15:15.987Z,7.20
2022-10-13T00:20:17.798Z,6.90
2022-10-13T00:25:19.670Z,7.47
2022-10-13T00:30:21.476Z,7.70
2022-10-13T00:35:23.333Z,7.45
2022-10-13T00:40:25.132Z,6.88
2022-10-13T00:45:30.683Z,7.15
2022-10-13T00:50:37.573Z,7.53
2022-10-13T00:55:41.700Z,7.38
2022-10-13T01:00:49.249Z,7.65
2022-10-13T01:05:53.652Z,7.00
2022-10-13T01:11:12.923Z,6.80
2022-10-13T01:16:40.923Z,7.53
2022-10-13T01:21:52.933Z,6.47
2022-10-13T01:27:19.261Z,6.88
2022-10-13T01:32:35.593Z,7.00
2022-10-13T01:37:43.674Z,6.35
2022-10-13T01:42:54.409Z,6.88
2022-10-13T01:53:02.099Z,6.78
2022-10-13T01:58:03.912Z,6.78
2022-10-13T02:03:23.453Z,6.05
2022-10-13T02:08:53.094Z,6.25
2022-10-13T02:14:20.911Z,6.97
2022-10-13T02:19:23.808Z,7.03
2022-10-13T02:24:25.675Z,7.95
2022-10-13T02:29:27.447Z,6.70
2022-10-13T02:34:29.302Z,7.20
2022-10-13T02:39:30.998Z,6.97
2022-10-13T02:44:32.788Z,7.07
2022-10-13T02:49:34.686Z,6.85
2022-10-13T02:54:36.553Z,6.80
2022-10-13T02:59:38.425Z,8.07
2022-10-13T03:04:40.221Z,6.80
2022-10-13T03:09:42.029Z,6.78
2022-10-13T03:14:43.853Z,7.25
2022-10-13T03:19:45.637Z,7.00
2022-10-13T03:24:47.390Z,8.32
2022-10-13T03:29:49.173Z,7.65
2022-10-13T03:34:51.683Z,8.02
2022-10-13T03:39:53.433Z,7.25
2022-10-13T03:44:56.468Z,8.20
2022-10-13T03:49:58.576Z,7.32
2022-10-13T03:55:00.574Z,8.00
2022-10-13T04:00:03.880Z,8.38
2022-10-13T04:05:06.042Z,8.43
2022-10-13T04:10:11.385Z,8.32
2022-10-13T04:15:13.513Z,7.55
2022-10-13T04:20:15.572Z,9.25
2022-10-13T04:25:17.455Z,7.93
2022-10-13T04:30:19.430Z,8.65
2022-10-13T04:35:21.226Z,8.50
2022-10-13T04:40:23.303Z,8.70
2022-10-13T04:45:25.136Z,7.57
2022-10-13T04:50:26.985Z,8.90
2022-10-13T04:55:28.816Z,8.32
2022-10-13T05:00:30.584Z,8.57
2022-10-13T05:05:35.371Z,7.50
2022-10-13T05:10:37.149Z,8.50
2022-10-13T05:15:39.487Z,8.07
2022-10-13T05:20:41.283Z,8.65
2022-10-13T05:25:43.112Z,6.68
2022-10-13T05:30:44.833Z,7.78
2022-10-13T05:35:46.557Z,7.95
2022-10-13T05:40:48.682Z,8.23
2022-10-13T05:45:50.445Z,8.73
2022-10-13T05:50:52.588Z,8.40
2022-10-13T05:55:56.365Z,8.55
2022-10-13T06:00:59.346Z,9.55
2022-10-13T06:06:01.355Z,8.88
2022-10-13T06:11:04.036Z,8.90
2022-10-13T06:16:05.994Z,8.77
2022-10-13T06:21:07.775Z,8.70
2022-10-13T06:26:09.501Z,8.55
2022-10-13T06:31:11.317Z,8.85
2022-10-13T06:36:13.265Z,8.35
2022-10-13T06:41:15.282Z,8.90
2022-10-13T06:46:17.052Z,8.18
2022-10-13T06:51:19.348Z,7.88
2022-10-13T06:56:21.056Z,8.52
2022-10-13T07:01:22.835Z,8.90
2022-10-13T07:06:24.808Z,8.27
2022-10-13T07:11:26.949Z,7.90
2022-10-13T07:16:28.702Z,8.75
2022-10-13T07:21:30.569Z,8.40
2022-10-13T07:26:33.938Z,7.63
2022-10-13T07:31:35.720Z,8.30
2022-10-13T07:36:40.620Z,7.32
2022-10-13T07:41:42.484Z,8.00
2022-10-13T07:46:44.259Z,8.85
2022-10-13T07:51:45.993Z,7.30
2022-10-13T07:56:52.664Z,7.70
2022-10-13T08:01:54.437Z,8.35
2022-10-13T08:06:56.155Z,8.25
2022-10-13T08:12:01.586Z,7.80
2022-10-13T08:17:03.698Z,7.78
2022-10-13T08:22:09.168Z,7.38
2022-10-13T08:27:21.613Z,7.90
2022-10-13T08:32:23.703Z,8.27
2022-10-13T08:37:25.412Z,7.82
2022-10-13T08:42:27.389Z,7.05
2022-10-13T08:47:50.517Z,7.45
2022-10-13T08:52:57.133Z,7.50
2022-10-13T08:58:01.002Z,7.32
2022-10-13T09:03:38.251Z,7.20
2022-10-13T09:08:59.003Z,6.65
2022-10-13T09:19:22.468Z,7.13
2022-10-13T09:24:26.639Z,6.65
2022-10-13T09:29:28.390Z,7.50
2022-10-13T09:34:30.589Z,6.35
2022-10-13T09:39:34.376Z,6.85
2022-10-13T09:44:36.263Z,7.00
2022-10-13T09:49:43.893Z,6.38
2022-10-13T09:54:47.428Z,6.57
2022-10-13T10:00:12.726Z,6.95
2022-10-13T10:05:34.462Z,7.28
2022-10-13T10:10:39.607Z,6.90
2022-10-13T10:15:56.697Z,7.00
2022-10-13T10:21:08.430Z,6.60
2022-10-13T10:26:23.176Z,6.30
2022-10-13T10:31:39.235Z,7.00
2022-10-13T10:37:03.689Z,6.90
2022-10-13T10:42:19.614Z,6.93
2022-10-13T10:47:27.083Z,6.97
2022-10-13T10:53:00.923Z,7.55
2022-10-13T10:58:16.348Z,7.55
2022-10-13T11:03:45.941Z,6.95
2022-10-13T11:08:49.281Z,7.60
2022-10-13T11:13:59.454Z,7.72
2022-10-13T11:19:25.535Z,9.02
2022-10-13T11:24:42.169Z,8.85
2022-10-13T11:29:44.079Z,10.13
2022-10-13T11:35:06.468Z,11.10
2022-10-13T11:40:08.297Z,9.98
2022-10-13T11:45:42.137Z,11.75
2022-10-13T11:50:48.414Z,10.38
2022-10-13T11:55:53.165Z,11.98
2022-10-13T12:00:59.413Z,10.90
2022-10-13T12:06:07.794Z,11.30
2022-10-13T12:11:37.703Z,12.15
2022-10-13T12:16:53.605Z,11.83
2022-10-13T12:21:58.547Z,10.80
2022-10-13T12:27:22.938Z,10.80
2022-10-13T12:32:30.657Z,10.55
2022-10-13T12:37:37.284Z,11.75
2022-10-13T12:42:39.713Z,10.93
2022-10-13T12:47:44.434Z,11.50
2022-10-13T12:52:46.397Z,12.35
2022-10-13T12:57:50.425Z,11.55
2022-10-13T13:02:54.716Z,10.55
2022-10-13T13:07:56.450Z,11.18
2022-10-13T13:13:13.863Z,10.90
2022-10-13T13:18:39.305Z,11.90
2022-10-13T13:23:41.516Z,11.70
2022-10-13T13:28:50.611Z,11.93
2022-10-13T13:33:52.627Z,9.75
2022-10-13T13:38:55.120Z,11.60
2022-10-13T13:43:57.563Z,13.68
2022-10-13T13:48:59.311Z,11.95
2022-10-13T13:54:01.095Z,14.15
2022-10-13T13:59:02.812Z,10.30
2022-10-13T14:04:04.712Z,8.63
2022-10-13T14:09:06.442Z,9.85
2022-10-13T14:14:08.141Z,11.52
2022-10-13T14:19:10.576Z,9.40
2022-10-13T14:24:12.578Z,11.52
2022-10-13T14:29:15.040Z,12.98
2022-10-13T14:34:16.813Z,11.70
2022-10-13T14:39:18.774Z,12.93
2022-10-13T14:44:20.491Z,11.95
2022-10-13T14:49:22.227Z,11.98
2022-10-13T14:54:24.494Z,12.73
2022-10-13T14:59:26.233Z,11.20
2022-10-13T15:04:27.973Z,12.30
2022-10-13T15:09:44.838Z,10.55
2022-10-13T15:14:51.476Z,16.10
2022-10-13T15:19:53.297Z,11.38
2022-10-13T15:24:55.094Z,10.60
2022-10-13T15:29:56.829Z,10.57
2022-10-13T15:34:58.544Z,9.57
2022-10-13T15:40:00.345Z,8.20
2022-10-13T15:45:09.828Z,7.70
2022-10-13T15:50:12.455Z,6.05
2022-10-13T15:55:14.179Z,5.00
2022-10-13T16:00:16.585Z,5.50
2022-10-13T16:05:19.181Z,5.10
2022-10-13T16:10:20.916Z,4.75
2022-10-13T16:15:22.671Z,4.40
2022-10-13T16:20:24.422Z,4.53
2022-10-13T16:25:26.180Z,4.90
2022-10-13T16:30:30.387Z,5.18
2022-10-13T16:35:34.341Z,4.70
2022-10-13T16:40:40.644Z,5.18
2022-10-13T16:45:59.133Z,5.10
2022-10-13T16:51:06.368Z,4.82
2022-10-13T16:56:08.922Z,4.68
2022-10-13T17:01:12.017Z,5.07
2022-10-13T17:06:14.998Z,5.22
2022-10-13T17:11:22.916Z,5.18
2022-10-13T17:16:27.141Z,6.18
2022-10-13T17:21:29.444Z,6.75
2022-10-13T17:26:31.553Z,6.40
2022-10-13T17:31:33.470Z,6.85
2022-10-13T17:36:35.684Z,7.18
2022-10-13T17:41:37.772Z,7.50
2022-10-13T17:46:39.922Z,8.02
2022-10-13T17:51:43.170Z,6.65
2022-10-13T17:56:45.730Z,7.07
2022-10-13T18:01:47.525Z,7.93
2022-10-13T18:06:49.572Z,7.63
2022-10-13T18:11:53.492Z,7.13
2022-10-13T18:16:56.733Z,8.20
2022-10-13T18:21:58.521Z,7.28
2022-10-13T18:27:00.326Z,7.93
2022-10-13T18:32:02.302Z,8.88
2022-10-13T18:37:05.721Z,8.63
2022-10-13T18:42:08.656Z,9.32
2022-10-13T18:47:10.414Z,8.45
2022-10-13T18:52:13.043Z,9.68
2022-10-13T18:57:14.809Z,9.55
2022-10-13T19:02:16.880Z,7.95
2022-10-13T19:07:18.939Z,8.02
2022-10-13T19:12:21.231Z,9.40
2022-10-13T19:17:23.320Z,8.57
2022-10-13T19:22:25.394Z,9.35
2022-10-13T19:27:27.959Z,8.82
2022-10-13T19:32:29.828Z,9.77
2022-10-13T19:37:32.266Z,9.68
2022-10-13T19:42:34.765Z,8.80
2022-10-13T19:47:37.010Z,9.73
2022-10-13T19:52:38.817Z,8.88
2022-10-13T19:57:42.121Z,8.40
2022-10-13T20:02:44.323Z,9.82
2022-10-13T20:07:46.098Z,9.50
2022-10-13T20:12:47.892Z,9.63
2022-10-13T20:17:49.660Z,10.50
2022-10-13T20:22:51.558Z,9.45
2022-10-13T20:27:53.567Z,10.43
2022-10-13T20:32:56.357Z,10.73
2022-10-13T20:37:58.297Z,10.73
2022-10-13T20:43:00.019Z,11.55
2022-10-13T20:48:01.793Z,11.20
2022-10-13T20:53:04.080Z,10.52
2022-10-13T20:58:05.830Z,9.82
2022-10-13T21:03:07.591Z,10.35
2022-10-13T21:08:09.316Z,9.27
2022-10-13T21:13:12.057Z,9.05
2022-10-13T21:18:14.466Z,9.55
2022-10-13T21:23:16.179Z,10.00
2022-10-13T21:28:17.930Z,9.20
2022-10-13T21:33:19.969Z,10.43
2022-10-13T21:38:21.790Z,10.18
2022-10-13T21:43:23.549Z,10.32
2022-10-13T21:48:25.317Z,10.55
2022-10-13T21:53:27.118Z,11.52
2022-10-13T21:58:29.039Z,10.63
2022-10-13T22:03:31.192Z,10.77
2022-10-13T22:08:38.549Z,10.38
2022-10-13T22:13:41.038Z,10.43
2022-10-13T22:18:44.309Z,10.48
2022-10-13T22:23:46.696Z,10.40
2022-10-13T22:28:51.541Z,10.90
2022-10-13T22:33:53.946Z,10.82
2022-10-13T22:38:59.268Z,10.80
2022-10-13T22:44:02.383Z,10.25
2022-10-13T22:49:05.432Z,11.00
2022-10-13T22:54:07.240Z,11.45
2022-10-13T22:59:10.862Z,10.57
2022-10-13T23:04:26.875Z,12.20
2022-10-13T23:09:28.904Z,12.23
2022-10-13T23:14:30.631Z,11.23
2022-10-13T23:19:32.346Z,12.20
2022-10-13T23:24:34.073Z,12.40
2022-10-13T23:29:35.906Z,11.23
2022-10-13T23:34:37.618Z,11.35
2022-10-13T23:39:39.356Z,11.27
2022-10-13T23:44:41.105Z,11.02
2022-10-13T23:49:42.873Z,10.52
2022-10-13T23:54:44.588Z,10.82
2022-10-13T23:59:47.080Z,9.90
